Terminal Aerodrome Forecast
Issued by NWS Cleveland, OH

Home | Current Version | Previous Version | Graphics & Text | Print | Product List | Glossary On
Versions: 1 2 3 4 5 6 7 8 9 10 11 12 13 14 15 16 17 18 19 20 21 22 23 24 25 26 27
000
FTUS41 KCLE 250200 AAA
TAFCLE
TAF AMD
KCLE 250252Z 2503/2606 10004KT P6SM OVC250
     FM250700 08006KT P6SM OVC070
     FM251800 03010KT P6SM OVC250
     FM260000 04007KT P6SM OVC100=

USA.gov is the U.S. government's official web portal to all federal, state and local government web resources and services.